Desk Aeronautico è consultabile gratuitamente, la pubblicità è l'unico modo per mantenere il sito online. Cercheremo di renderla il meno invasiva possibile, disattiva AdBlock!

Ultimi METAR emessi

Il METAR (Aerodrome routine meteorological report) è un messaggio codificato che descrive le condizioni meteorologiche osservate da una stazione meteo. I METAR sono reperibili presso gli ARO competenti. Scopri come leggere i METAR dalla nostra guida.

La lista degli ultimi METAR emessi da stazioni meteorologiche italiane sono elencati a seguire a puro scopo informativo. L’elenco degli indicatori di località ICAO è disponibile qui.


METAR LIBA 170155Z 27009KT 9999 SCT060 17/13 Q1018 RMK SCT VIS MIN 9999 WIND THR11 27009KT WIND THR29 /////KT BLU=
METAR LIBC 161750Z 24004KT CAVOK 20/17 Q1017=
METAR LIBD 170220Z 24003KT 9999 FEW045 16/12 Q1018=
METAR LIBE 170155Z 30005KT CAVOK 14/12 Q1019 RMK SKC MON LIB VAL NIL VIS MIN 9999=
METAR LIBF 161550Z 25010KT 230V290 CAVOK 23/11 Q1016=
METAR LIBG 161750Z 07003KT 9999 FEW030 21/17 Q1016=
METAR LIBH 161755Z 31008KT CAVOK 22/14 Q1015 RMK SKC QUK / QUL / VIS MAR 30 KM VIS MIN 9999=
METAR LIBN 170155Z 32005KT 6000 FEW010 18/17 Q1017 RMK FEW VIS MIN 6000 WIND THR14 31005KT WIND THR32 32005KT WHT=
METAR LIBP 170150Z AUTO 24004KT 9999 BKN053/// BKN070/// 14/12 Q1019=
METAR LIBQ 170155Z 27014KT CAVOK 08/01 Q1020 RMK SKC MON LIB VAL NIL VIS MIN 9999=
METAR LIBR 170220Z 31011KT CAVOK 20/16 Q1017=
METAR LIBS 170155Z 24006KT CAVOK 12/11 Q1021 RMK FEW FEW180 MON INVIS NC VIS MIN 9999=
METAR LIBT 161755Z 28005KT CAVOK 21/17 Q1017 RMK SKC QUK / QUL / VIS MAR 25 KM VIS MIN 9999=
METAR LIBU 161755Z 24010KT CAVOK 13/11 Q1020 RMK SKC MON LIB VAL NIL VIS MIN 9999=
METAR LIBV 170155Z 36003KT CAVOK 15/11 Q1018 RMK SKC VIS MIN 9999 WIND THR32 36005KT WIND THR14 04002KT BLU=
METAR LIBW 161755Z 32010KT 9999 BKN020 16/12 Q1019 RMK BKN QUK / QUL / VIS MAR 20 KM MON CLD CIME VAL NIL VIS MIN 9999=
METAR LIBY 161755Z 27004KT CAVOK 21/19 Q1016 RMK FEW FEW080 QUK / QUL / VIS MAR 10 KM VIS MIN 9999=
METAR LICA 170150Z 06004KT 9999 FEW030 13/13 Q1019=
METAR LICB 170150Z AUTO VRB01KT 9999 NCD 14/12 Q1019=
METAR LICC 170220Z 25005KT 9999 SCT030 15/13 Q1018=
METAR LICD 170150Z AUTO 36006KT 9999 FEW084/// 22/16 Q1020=
METAR LICE 161755Z 33003KT CAVOK 14/M16 Q1019 RMK FEW FEW090 MON LIB NC VAL NIL NC VIS MIN 9999=
METAR LICF 170155Z 03002KT 9999 SCT025 19/11 Q1018 RMK SCT QUK / QUL / VIS MAR 16 KM MON INVIS NC VIS MIN 9999=
METAR LICG 161750Z 35003KT 9999 FEW020 20/14 Q1021=
METAR LICJ 170220Z 17004KT 9999 FEW035 15/11 Q1019=
METAR LICL 161755Z 29007KT 240V320 CAVOK 22/15 Q1017 RMK SKC QUK / QUL / VIS MAR 20 KM VIS MIN 9999=
METAR LICO 161755Z 07002KT CAVOK 21/19 Q1016 RMK FEW FEW090 QUK / QUL / VIS MAR 20 KM VIS MIN 9999=
METAR LICR 162150Z 01007KT CAVOK 21/15 Q1019=
METAR LICT 170155Z 11003KT CAVOK 14/12 Q1020 RMK SKC VIS MIN 9999 WIND THR13 09003KT BLU=
METAR LICU 161755Z /////KT 9999 FEW017 19/12 Q1020 RMK SCT QUK 2 QUL 1 NW VIS MAR 16 KM VIS MIN 9999=
METAR LICX 161355Z 33008KT 9999 SCT015 18/06 Q1021 RMK SCT MON LIB NC VAL NIL NC VIS MIN 9999=
METAR LICZ 170155Z 27005KT 9999 FEW040 16/15 Q1019 RMK FEW VIS MIN 9999 WIND THR28 28006KT WIND THR10 /////KT A3011 BLU=
METAR LIEA 170220Z VRB01KT CAVOK 11/10 Q1019=
METAR LIEB 170155Z 30007KT CAVOK 17/06 Q1019 RMK SKC QUK / QUL / VIS MAR 20 KM MON INVIS VIS MIN 9999=
METAR LIEC 162155Z 29003KT CAVOK 19/11 Q1018 RMK QUK / QUL / VIS MAR 20 KM VIS MIN 9999=
METAR LIED 170155Z 29004KT CAVOK 12/09 Q1019 RMK SKC VIS MIN 9999 WIND THR35 30004KT WIND THR17 /////KT BLU=
METAR LIEE 170220Z 32006KT CAVOK 12/11 Q1020=
METAR LIEF 161755Z 32001KT 9999 FEW030 18/15 Q1020 RMK FEW QUK / QUL / VIS MAR 25 KM VIS MIN 9999=
METAR LIEH 170155Z 14006KT CAVOK 18/16 Q1020 RMK SKC QUK / QUL / VIS MAR 20 KM VIS MIN 9999=
METAR LIEL 161355Z 30005KT CAVOK 26/10 Q1018 RMK SCT SCT180 VIS MAR 18 KM MON LIB VIS MIN 9999=
METAR LIEO 162050Z 23003KT 140V250 9999 FEW020 14/12 Q1020=
METAR LIEP 161355Z 27011KT 9999 FEW018 19/09 Q1019 RMK SCT SCT200 VIS MIN 9999=
METAR LIMC 170220Z 01005KT 9999 SCT060 10/10 Q1019 NOSIG=
METAR LIME 170220Z 01004KT CAVOK 11/10 Q1019 NOSIG=
METAR LIMF 170220Z 28004KT CAVOK 11/09 Q1019=
METAR LIMG 161750Z 00000KT 9999 BKN028 17/15 Q1017=
METAR LIMH 170155Z 21012KT 180V240 9999 BKN040 M03/M07 Q1023 RMK BKN MON LIB VAL NIL VIS MIN 9999=
METAR LIMJ 170220Z 03005KT 9999 BKN030 17/14 Q1019=
METAR LIMK 170155Z 01006KT CAVOK 11/11 Q1019 RMK SKC VAL NIL VIS MIN 9999=
METAR LIMN 161755Z 35001KT CAVOK 13/11 Q1017 RMK FEW FEW200 VIS MIN 9999 BLU=
METAR LIMP 162050Z 18004KT CAVOK 14/14 Q1018=
METAR LIMS 161755Z 24003KT 9999 FEW060 15/15 Q1016 RMK FEW VIS MIN 9999 WIND THR30 24003KT BLU=
METAR LIMU 170155Z 25002KT CAVOK 16/13 Q1019 RMK SCT SCT090 QUK / QUL / VIS MAR 30 KM VIS MIN 9999=
METAR LIMV 161755Z /////KT 9999 FEW010 SCT013 13/12 Q1018 RMK BKN MON LIB VAL NIL VIS MIN 9999=
METAR LIMY 161755Z /////KT CAVOK 15/14 Q1017 RMK BKN BKN060 VAL FOSCHIA VIS MIN 9999=
METAR LIMZ 161850Z VRB01KT CAVOK 13/12 Q1018=
METAR LIPA 161955Z 05005KT 9999 FEW050 15/13 Q1017 RMK FEW VIS MIN 9999 WIND THR05 /////KT WIND THR23 /////KT A3006 BLU=
METAR LIPB 162050Z VRB01KT 9999 FEW110 11/09 Q1019 RMK MON INVIS=
METAR LIPC 170155Z VRB02KT CAVOK 10/10 Q1019 RMK FEW FEW080 VIS MIN 9999 WIND THR11 ///// KT WIND THR29 31001KT 260V360 BLU=
METAR LIPE 170220Z 20004KT CAVOK 12/10 Q1019=
METAR LIPF 161755Z /////KT CAVOK 15/12 Q1017 RMK SKC VIS MIN 9999=
METAR LIPH 170220Z AUTO VRB02KT 0650 R07/0500VP1500U BCFG BKN017/// 12/12 Q1018=
METAR LIPI 161355Z 13007KT 9999 SCT025 21/14 Q1015 RMK SCT VIS MIN 9999 WIND THR06 19008KT WIND THR24 18006KT BLU=
METAR LIPK 161550Z 22008KT 9999 FEW025 20/09 Q1016=
METAR LIPL 170155Z 36005KT 9999 BKN070 13/10 Q1018 RMK BKN VIS MIN 9999 WIND THR31 01003KT WIND THR13 36004KT BLU=
METAR LIPO 170150Z 02005KT CAVOK 13/11 Q1019=
METAR LIPQ 170220Z AUTO 04003KT 9999 NCD 09/09 Q1019=
METAR LIPR 170220Z AUTO 21003KT 9999 NCD 11/08 Q1019=
METAR LIPS 170155Z /////KT 0800 FG NSC 12/12 Q1018 RMK SKC VIS MIN 0800 WIND THR26 00000KT WIND THR08 00000KT AMB=
METAR LIPU 161350Z 23004KT 190V310 CAVOK 20/14 Q1016=
METAR LIPX 170220Z 32003KT CAVOK 10/10 Q1019=
METAR LIPY 170150Z AUTO 17003KT 140V220 9999 NCD 12/09 Q1019=
METAR LIPZ 170220Z 02005KT 5000 BR FEW015 13/12 Q1018 NOSIG=
METAR LIQB 161755Z 00000KT 9999 SCT025 14/11 Q1018 RMK SCT VIS MIN 9999=
METAR LIQC 170155Z 23002KT CAVOK 17/13 Q1020 RMK SKC QUK / QUL / VIS MAR 25 KM VIS MIN 9999=
METAR LIQJ 170155Z AUTO 08002KT //// 16/11 Q1020=
METAR LIQK 170155Z 12004KT CAVOK 18/14 Q1018 RMK SKC QUK / QUL / VIS MAR 20 KM VIS MIN 9999=
METAR LIQN 161750Z VRB02KT CAVOK 15/12 Q1016=
METAR LIQO 161755Z 33007KT CAVOK 14/08 Q1019 RMK FEW FEW200 VAL NIL NC VIS MIN 9999=
METAR LIQR 161755Z 00000KT 9999 FEW022 13/08 Q1024 RMK FEW MON LIB NC VAL NIL NC VIS MIN 9999=
METAR LIQW 162055Z /////KT 9999 SCT020 16/15 Q1019 RMK SCT VIS MIN 9999 WIND THR18 32002KT BLU=
METAR LIQZ 162355Z 04007KT 9999 FEW010 19/17 Q1018 RMK FEW QUK / QUL / VIS MAR 25 KM VIS MIN 9999=
METAR LIRA 170220Z 06004KT CAVOK 13/10 Q1019=
METAR LIRB 170155Z AUTO 02005KT //// 15/12 Q1020=
METAR LIRE 170155Z 02006KT CAVOK 15/14 Q1018 RMK SKC VIS MIN 9999 WIND THR13 03006KT WIND THR31 /////KT BLU=
METAR LIRF 170220Z 10003KT CAVOK 13/12 Q1019 NOSIG=
METAR LIRG 161755Z 04003KT 9999 FEW035 18/12 Q1019 RMK SCT SCT090 MON NE LIB NC VIS MIN 9999 BLU=
METAR LIRH 161755Z 00000KT 9999 SCT030 17/11 Q1018 RMK SCT MON INVIS VAR RAPID VIS MIN 9999 WIND THR16 /////KT BLU=
METAR LIRK 170155Z AUTO 32005KT //// 06/02 Q1023=
METAR LIRL 161755Z 05004KT 9999 FEW030 18/16 Q1018 RMK FEW MON INVIS VAR RAPID VIS MIN 9999 WIND THR12 07002KT WIND THR30 06003KT BLU=
METAR LIRM 170155Z 02005KT CAVOK 15/14 Q1020 RMK SKC VIS MIN 9999 WIND THR06 02004KT BLU=
METAR LIRN 170220Z 01003KT CAVOK 14/11 Q1019 NOSIG=
METAR LIRP 170215Z 10007KT 9999 FEW030 12/11 Q1020 NOSIG RMK FEW VIS MIN 9999 WIND THR04 09005KT WIND THR22 10003KT BLU=
METAR LIRQ 170220Z 35001KT CAVOK 11/11 Q1020=
METAR LIRS 170155Z 02004KT CAVOK 11/09 Q1020 RMK SCT SCT100 VIS MIN 9999 WIND THR03 03005KT WIND THR21 02004KT BLU=
METAR LIRT 161755Z 26017KT 9999 SCT010 08/06 Q1020 RMK SCT MON INVIS VAL INVIS VIS MIN 9999=
METAR LIRU 161650Z VRB03KT 9999 FEW040 19/14 Q1018=
METAR LIRV 161855Z /////KT 9999 SCT026 18/09 Q1018 RMK SCT MON E SE LIB NC VIS MIN 9999 WIND THR04 /////KT BLU=
METAR LIRX 161755Z 18005KT 9999 SCT005 15/11 Q1018 RMK SCT VIS MIN 9999 VIS MAR 20 KM=
METAR LIRZ 170150Z AUTO VRB02KT 9999 NCD 09/08 Q1021=
METAR LIVC 170055Z 26015KT CAVOK 06/M05 Q1022 RMK SKC MON LIB VAL NIL VIS MIN 9999=
METAR LIVD 161755Z ///01KT 9999 FEW023 08/06 Q1021 RMK FEW VIS MIN 9999=
METAR LIVE 170155Z 00000KT CAVOK 06/03 Q1021 RMK SKC VIS MIN 9999=
METAR LIVF 170155Z 21005KT CAVOK 13/09 Q1020 RMK FEW FEW200 MON LIB VAL NIL VIS MIN 9999=
METAR LIVM 170155Z AUTO VRB02KT //// 13/10 Q1019=
METAR LIVO 161755Z 29001KT CAVOK 11/09 Q1018 RMK SKC VIS MIN 9999=
METAR LIVP 170155Z 25010KT 0900 FG VV/// 02/00 Q1021 RMK MON INVIS VAL INVIS VIS MIN 0900=
METAR LIVR 162055Z 15003KT 9999 SCT020 05/04 Q1019 RMK SCT MON LIB VIS MIN 9999=
METAR LIVT 170155Z ///04KT CAVOK 13/12 Q1018 RMK SKC QUK / QUL / VIS MAR 20 KM VIS MIN 9999=

Informazioni elaborate dal Servizio Meteorologico dell’Aeronautica Militare e pubblicate sul sito www.meteoam.it